createdAt,value
2023-02-12T00:02:18.519Z,12.63
2023-02-12T00:04:47.444Z,11.77
2023-02-12T00:07:14.128Z,11.30
2023-02-12T00:09:40.867Z,10.90
2023-02-12T00:12:07.781Z,11.82
2023-02-12T00:14:34.775Z,11.60
2023-02-12T00:17:01.383Z,12.18
2023-02-12T00:19:28.021Z,12.20
2023-02-12T00:21:54.685Z,11.38
2023-02-12T00:24:21.458Z,10.80
2023-02-12T00:26:48.874Z,12.38
2023-02-12T00:29:15.494Z,13.00
2023-02-12T00:31:42.414Z,12.20
2023-02-12T00:34:11.168Z,12.95
2023-02-12T00:36:37.847Z,11.73
2023-02-12T00:39:04.477Z,13.00
2023-02-12T00:41:31.356Z,13.27
2023-02-12T00:43:58.292Z,12.65
2023-02-12T00:46:24.970Z,13.05
2023-02-12T00:48:51.687Z,13.38
2023-02-12T00:51:18.378Z,12.68
2023-02-12T00:53:45.060Z,12.60
2023-02-12T00:56:11.769Z,12.18
2023-02-12T00:58:38.411Z,13.35
2023-02-12T01:01:05.207Z,12.75
2023-02-12T01:03:31.952Z,12.75
2023-02-12T01:05:58.830Z,12.63
2023-02-12T01:08:25.863Z,13.63
2023-02-12T01:10:58.607Z,12.70
2023-02-12T01:13:26.021Z,13.10
2023-02-12T01:16:14.150Z,11.80
2023-02-12T01:18:41.130Z,12.35
2023-02-12T01:21:16.727Z,12.48
2023-02-12T01:23:44.130Z,11.68
2023-02-12T01:26:12.373Z,13.18
2023-02-12T01:28:40.646Z,11.98
2023-02-12T01:31:16.455Z,12.38
2023-02-12T01:33:44.063Z,12.55
2023-02-12T01:36:11.429Z,12.20
2023-02-12T01:38:38.082Z,12.45
2023-02-12T01:41:20.714Z,12.30
2023-02-12T01:44:06.847Z,12.30
2023-02-12T01:46:33.817Z,12.45
2023-02-12T01:49:01.833Z,12.35
2023-02-12T01:51:29.486Z,11.85
2023-02-12T01:54:01.859Z,11.27
2023-02-12T01:56:29.617Z,11.55
2023-02-12T01:58:57.745Z,12.30
2023-02-12T02:01:34.259Z,12.23
2023-02-12T02:04:07.889Z,11.43
2023-02-12T02:06:39.823Z,12.35
2023-02-12T02:09:06.887Z,12.05
2023-02-12T02:11:52.390Z,11.40
2023-02-12T02:14:34.336Z,12.18
2023-02-12T02:20:08.254Z,10.65
2023-02-12T02:23:18.274Z,11.65
2023-02-12T02:26:22.345Z,11.80
2023-02-12T02:28:48.987Z,12.35
2023-02-12T02:31:44.460Z,12.27
2023-02-12T02:34:30.380Z,12.00
2023-02-12T02:37:11.079Z,12.50
2023-02-12T02:39:46.720Z,11.35
2023-02-12T02:42:38.066Z,12.02
2023-02-12T02:45:31.475Z,11.67
2023-02-12T02:48:12.681Z,12.02
2023-02-12T02:50:44.249Z,12.43
2023-02-12T02:53:19.836Z,11.60
2023-02-12T02:55:54.273Z,12.45
2023-02-12T02:58:25.661Z,13.02
2023-02-12T03:00:57.203Z,12.27
2023-02-12T03:03:34.235Z,12.65
2023-02-12T03:06:07.370Z,11.95
2023-02-12T03:08:40.420Z,13.70
2023-02-12T03:11:23.303Z,13.57
2023-02-12T03:13:53.419Z,14.48
2023-02-12T03:16:28.783Z,13.05
2023-02-12T03:19:05.813Z,12.90
2023-02-12T03:21:40.604Z,12.77
2023-02-12T03:24:32.279Z,14.05
2023-02-12T03:27:37.669Z,13.52
2023-02-12T03:30:06.951Z,15.07
2023-02-12T03:32:56.625Z,13.05
2023-02-12T03:35:31.860Z,13.13
2023-02-12T03:38:01.779Z,13.05
2023-02-12T03:40:39.606Z,13.98
2023-02-12T03:43:15.956Z,13.35
2023-02-12T03:45:54.184Z,13.45
2023-02-12T03:48:23.962Z,12.55
2023-02-12T03:50:53.984Z,11.70
2023-02-12T03:53:20.886Z,13.70
2023-02-12T03:55:54.287Z,11.77
2023-02-12T03:58:25.663Z,12.40
2023-02-12T04:00:52.454Z,12.77
2023-02-12T04:03:19.228Z,13.43
2023-02-12T04:05:45.934Z,12.35
2023-02-12T04:08:13.311Z,13.80
2023-02-12T04:10:39.971Z,15.27
2023-02-12T04:13:21.592Z,13.75
2023-02-12T04:16:02.025Z,14.45
2023-02-12T04:18:46.704Z,15.52
2023-02-12T04:21:47.866Z,15.63
2023-02-12T04:24:36.186Z,13.95
2023-02-12T04:27:34.945Z,14.98
2023-02-12T04:30:20.198Z,14.52
2023-02-12T04:32:55.494Z,14.07
2023-02-12T04:35:31.312Z,15.50
2023-02-12T04:38:15.907Z,15.02
2023-02-12T04:40:43.696Z,14.15
2023-02-12T04:43:11.431Z,15.52
2023-02-12T04:45:38.609Z,14.40
2023-02-12T04:48:06.515Z,15.05
2023-02-12T04:50:42.595Z,14.65
2023-02-12T04:53:10.488Z,14.57
2023-02-12T04:55:37.699Z,15.75
2023-02-12T04:58:05.592Z,16.65
2023-02-12T05:00:32.563Z,16.38
2023-02-12T05:02:59.222Z,16.13
2023-02-12T05:05:25.945Z,15.13
2023-02-12T05:07:52.651Z,16.58
2023-02-12T05:10:19.450Z,15.55
2023-02-12T05:12:46.039Z,14.93
2023-02-12T05:15:12.744Z,15.95
2023-02-12T05:17:39.438Z,16.23
2023-02-12T05:20:06.709Z,15.82
2023-02-12T05:22:33.349Z,15.80
2023-02-12T05:25:00.025Z,15.70
2023-02-12T05:27:26.634Z,16.30
2023-02-12T05:29:53.291Z,16.40
2023-02-12T05:32:19.967Z,16.58
2023-02-12T05:34:46.580Z,16.05
2023-02-12T05:37:13.169Z,14.88
2023-02-12T05:39:39.910Z,14.40
2023-02-12T05:42:06.734Z,14.48
2023-02-12T05:44:33.357Z,15.80
2023-02-12T05:47:00.038Z,16.27
2023-02-12T05:49:26.740Z,15.10
2023-02-12T05:51:53.376Z,15.25
2023-02-12T05:54:20.106Z,15.60
2023-02-12T05:56:48.170Z,15.10
2023-02-12T05:59:21.376Z,15.32
2023-02-12T06:01:49.453Z,15.57
2023-02-12T06:04:19.511Z,15.20
2023-02-12T06:06:46.178Z,15.20
2023-02-12T06:09:13.987Z,15.70
2023-02-12T06:11:40.879Z,14.25
2023-02-12T06:14:11.007Z,14.35
2023-02-12T06:16:38.016Z,14.52
2023-02-12T06:19:06.127Z,14.68
2023-02-12T06:21:33.574Z,14.75
2023-02-12T06:24:00.855Z,15.38
2023-02-12T06:26:27.662Z,14.18
2023-02-12T06:28:54.693Z,14.68
2023-02-12T06:31:28.216Z,14.63
2023-02-12T06:33:56.689Z,14.73
2023-02-12T06:36:24.500Z,14.98
2023-02-12T06:38:51.692Z,15.02
2023-02-12T06:41:19.003Z,14.60
2023-02-12T06:43:45.672Z,14.02
2023-02-12T06:46:12.938Z,15.75
2023-02-12T06:48:39.658Z,15.52
2023-02-12T06:51:15.484Z,15.15
2023-02-12T06:53:42.966Z,15.70
2023-02-12T06:56:11.657Z,15.82
2023-02-12T06:58:43.016Z,15.25
2023-02-12T07:01:14.861Z,14.73
2023-02-12T07:06:09.592Z,14.45
2023-02-12T07:08:36.944Z,13.73
2023-02-12T07:11:04.151Z,13.25
2023-02-12T07:13:30.858Z,13.82
2023-02-12T07:15:57.867Z,12.90
2023-02-12T07:18:24.738Z,14.00
2023-02-12T07:20:51.353Z,14.05
2023-02-12T07:23:17.924Z,12.88
2023-02-12T07:25:44.600Z,13.95
2023-02-12T07:28:11.309Z,13.70
2023-02-12T07:30:38.490Z,13.40
2023-02-12T07:33:06.110Z,13.27
2023-02-12T07:35:32.792Z,12.98
2023-02-12T07:37:59.414Z,13.70
2023-02-12T07:40:26.001Z,14.43
2023-02-12T07:42:55.926Z,14.00
2023-02-12T07:45:22.712Z,13.20
2023-02-12T07:47:49.995Z,13.63
2023-02-12T07:50:17.117Z,13.80
2023-02-12T07:52:44.259Z,13.60
2023-02-12T07:55:10.922Z,13.90
2023-02-12T07:57:37.575Z,13.82
2023-02-12T08:00:05.299Z,13.07
2023-02-12T08:02:32.095Z,13.38
2023-02-12T08:04:59.482Z,12.85
2023-02-12T08:07:26.391Z,13.10
2023-02-12T08:09:53.501Z,13.40
2023-02-12T08:12:20.110Z,13.77
2023-02-12T08:14:46.765Z,13.27
2023-02-12T08:17:13.432Z,14.77
2023-02-12T08:19:40.069Z,14.25
2023-02-12T08:22:07.434Z,14.55
2023-02-12T08:24:34.105Z,13.80
2023-02-12T08:27:00.772Z,14.63
2023-02-12T08:29:29.555Z,14.05
2023-02-12T08:31:58.847Z,14.25
2023-02-12T08:34:28.476Z,14.68
2023-02-12T08:36:56.399Z,14.90
2023-02-12T08:39:24.855Z,14.95
2023-02-12T08:41:53.722Z,15.75
2023-02-12T08:44:20.325Z,14.25
2023-02-12T08:46:52.375Z,15.88
2023-02-12T08:49:31.299Z,13.70
2023-02-12T08:51:59.909Z,14.05
2023-02-12T08:54:29.031Z,14.05
2023-02-12T08:56:57.767Z,14.07
2023-02-12T08:59:24.869Z,15.38
2023-02-12T09:01:52.899Z,13.75
2023-02-12T09:04:22.333Z,14.02
2023-02-12T09:06:50.084Z,14.77
2023-02-12T09:09:17.444Z,14.07
2023-02-12T09:11:44.710Z,14.23
2023-02-12T09:14:14.105Z,14.23
2023-02-12T09:16:41.542Z,14.27
2023-02-12T09:19:09.165Z,14.02
2023-02-12T09:21:35.891Z,13.80
2023-02-12T09:24:03.619Z,14.13
2023-02-12T09:26:30.449Z,13.38
2023-02-12T09:28:57.441Z,13.85
2023-02-12T09:31:27.129Z,13.70
2023-02-12T09:33:57.708Z,14.55
2023-02-12T09:36:24.633Z,14.10
2023-02-12T09:38:51.506Z,13.98
2023-02-12T09:41:43.172Z,13.00
2023-02-12T09:44:39.532Z,12.48
2023-02-12T09:47:18.077Z,12.65
2023-02-12T09:50:00.916Z,12.50
2023-02-12T09:52:29.094Z,13.20
2023-02-12T09:54:56.811Z,12.55
2023-02-12T09:57:36.226Z,12.80
2023-02-12T10:00:09.504Z,12.00
2023-02-12T10:02:37.788Z,12.65
2023-02-12T10:05:06.527Z,12.70
2023-02-12T10:07:50.863Z,12.38
2023-02-12T10:10:43.053Z,11.77
2023-02-12T10:16:17.989Z,11.52
2023-02-12T10:18:55.728Z,13.00
2023-02-12T10:21:40.860Z,12.40
2023-02-12T10:24:27.069Z,11.85
2023-02-12T10:26:58.486Z,19.48
2023-02-12T10:29:30.133Z,16.08
2023-02-12T10:32:07.658Z,14.13
2023-02-12T10:34:36.829Z,13.50
2023-02-12T10:37:33.264Z,14.55
2023-02-12T10:40:17.312Z,12.95
2023-02-12T10:42:47.537Z,13.25
2023-02-12T10:45:23.893Z,13.57
2023-02-12T10:48:00.653Z,14.38
2023-02-12T10:51:08.954Z,13.35
2023-02-12T10:53:41.649Z,14.60
2023-02-12T10:56:08.277Z,15.00
2023-02-12T10:58:34.962Z,13.90
2023-02-12T11:01:02.953Z,14.35
2023-02-12T11:03:35.912Z,14.10
2023-02-12T11:06:14.849Z,13.95
2023-02-12T11:08:41.782Z,13.77
2023-02-12T11:11:21.298Z,14.65
2023-02-12T11:14:04.265Z,14.80
2023-02-12T11:16:50.820Z,13.57
2023-02-12T11:19:32.230Z,15.48
2023-02-12T11:22:10.321Z,14.07
2023-02-12T11:24:37.796Z,14.55
2023-02-12T11:27:24.126Z,13.57
2023-02-12T11:30:13.796Z,13.43
2023-02-12T11:32:40.445Z,14.57
2023-02-12T11:35:25.320Z,14.82
2023-02-12T11:37:57.429Z,14.02
2023-02-12T11:40:24.002Z,13.50
2023-02-12T11:42:57.449Z,14.10
2023-02-12T11:45:34.161Z,13.82
2023-02-12T11:48:01.389Z,15.20
2023-02-12T11:50:32.906Z,15.07
2023-02-12T11:53:07.999Z,14.52
2023-02-12T11:55:38.117Z,14.77
2023-02-12T11:58:21.911Z,14.55
2023-02-12T12:01:19.716Z,14.93
2023-02-12T12:04:11.816Z,14.43
2023-02-12T12:09:32.636Z,13.07
2023-02-12T12:12:06.688Z,13.55
2023-02-12T12:15:01.450Z,13.85
2023-02-12T12:18:13.358Z,14.65
2023-02-12T12:21:03.269Z,13.63
2023-02-12T12:23:42.073Z,14.93
2023-02-12T12:26:18.708Z,13.77
2023-02-12T12:28:55.156Z,14.10
2023-02-12T12:31:34.214Z,14.40
2023-02-12T12:34:14.517Z,14.27
2023-02-12T12:37:05.318Z,12.73
2023-02-12T12:39:46.251Z,14.57
2023-02-12T12:42:32.359Z,12.88
2023-02-12T12:45:36.555Z,14.40
2023-02-12T12:48:40.367Z,14.55
2023-02-12T12:51:25.838Z,12.85
2023-02-12T12:54:25.138Z,12.77
2023-02-12T12:57:02.863Z,13.13
2023-02-12T12:59:44.240Z,12.25
2023-02-12T13:02:38.209Z,12.90
2023-02-12T13:05:23.681Z,12.13
2023-02-12T13:08:09.134Z,12.88
2023-02-12T13:10:54.205Z,12.57
2023-02-12T13:13:27.625Z,11.95
2023-02-12T13:16:02.403Z,11.55
2023-02-12T13:18:40.566Z,12.25
2023-02-12T13:21:29.125Z,12.63
2023-02-12T13:24:03.359Z,12.00
2023-02-12T13:26:43.066Z,12.30
2023-02-12T13:29:20.867Z,12.43
2023-02-12T13:31:56.264Z,12.75
2023-02-12T13:34:26.497Z,12.15
2023-02-12T13:36:53.185Z,13.10
2023-02-12T13:39:31.373Z,12.20
2023-02-12T13:42:03.194Z,11.43
2023-02-12T13:44:36.454Z,13.15
2023-02-12T13:47:18.398Z,13.00
2023-02-12T13:52:44.490Z,12.20
2023-02-12T13:55:33.926Z,12.73
2023-02-12T13:58:31.606Z,12.30
2023-02-12T14:01:03.770Z,12.43
2023-02-12T14:03:31.778Z,11.80
2023-02-12T14:06:24.846Z,12.10
2023-02-12T14:09:06.738Z,12.40
2023-02-12T14:14:05.223Z,10.77
2023-02-12T14:16:31.750Z,12.52
2023-02-12T14:19:36.063Z,15.18
2023-02-12T14:22:28.726Z,11.60
2023-02-12T14:24:57.280Z,10.80
2023-02-12T14:27:43.754Z,10.95
2023-02-12T14:30:10.417Z,12.05
2023-02-12T14:32:53.470Z,11.18
2023-02-12T14:35:41.255Z,11.18
2023-02-12T14:38:17.753Z,11.90
2023-02-12T14:40:46.931Z,11.30
2023-02-12T14:43:58.116Z,11.05
2023-02-12T14:46:24.845Z,11.93
2023-02-12T14:48:51.625Z,12.45
2023-02-12T14:51:35.875Z,11.55
2023-02-12T14:54:06.602Z,10.88
2023-02-12T14:56:46.641Z,10.82
2023-02-12T14:59:21.135Z,12.25
2023-02-12T15:01:49.124Z,12.48
2023-02-12T15:04:30.169Z,13.77
2023-02-12T15:07:08.293Z,13.13
2023-02-12T15:09:55.712Z,13.85
2023-02-12T15:12:32.574Z,11.65
2023-02-12T15:15:13.312Z,11.85
2023-02-12T15:17:42.300Z,11.98
2023-02-12T15:20:21.083Z,11.55
2023-02-12T15:22:47.861Z,12.32
2023-02-12T15:25:27.845Z,11.57
2023-02-12T15:28:00.477Z,12.38
2023-02-12T15:30:31.879Z,11.85
2023-02-12T15:33:03.037Z,11.07
2023-02-12T15:35:32.525Z,12.25
2023-02-12T15:38:01.122Z,11.82
2023-02-12T15:40:30.158Z,11.80
2023-02-12T15:42:59.357Z,11.82
2023-02-12T15:45:27.517Z,11.77
2023-02-12T15:48:09.146Z,12.00
2023-02-12T15:50:47.615Z,12.02
2023-02-12T15:53:14.818Z,12.90
2023-02-12T15:55:44.779Z,11.98
2023-02-12T15:58:26.922Z,11.52
2023-02-12T16:00:55.524Z,11.88
2023-02-12T16:03:25.820Z,11.85
2023-02-12T16:05:56.422Z,11.85
2023-02-12T16:08:24.127Z,12.50
2023-02-12T16:10:53.713Z,12.88
2023-02-12T16:13:33.313Z,14.27
2023-02-12T16:16:11.863Z,14.68
2023-02-12T16:18:40.193Z,13.38
2023-02-12T16:21:19.321Z,13.50
2023-02-12T16:23:47.754Z,13.75
2023-02-12T16:26:24.011Z,13.68
2023-02-12T16:28:54.301Z,14.00
2023-02-12T16:31:24.575Z,14.52
2023-02-12T16:33:55.474Z,14.23
2023-02-12T16:36:24.857Z,13.65
2023-02-12T16:38:57.034Z,13.65
2023-02-12T16:41:27.335Z,13.77
2023-02-12T16:43:59.943Z,13.70
2023-02-12T16:46:28.719Z,14.98
2023-02-12T16:48:57.533Z,13.75
2023-02-12T16:51:29.700Z,13.40
2023-02-12T16:53:58.561Z,14.55
2023-02-12T16:56:28.137Z,16.30
2023-02-12T16:58:58.135Z,19.83
2023-02-12T17:01:31.161Z,16.83
2023-02-12T17:04:00.066Z,14.80
2023-02-12T17:06:29.173Z,15.32
2023-02-12T17:08:56.461Z,15.27
2023-02-12T17:11:24.373Z,18.88
2023-02-12T17:13:53.652Z,16.73
2023-02-12T17:16:30.258Z,15.95
2023-02-12T17:18:57.733Z,15.68
2023-02-12T17:21:30.900Z,14.70
2023-02-12T17:23:57.982Z,14.27
2023-02-12T17:26:25.395Z,15.65
2023-02-12T17:28:52.018Z,15.05
2023-02-12T17:31:20.687Z,15.57
2023-02-12T17:33:47.587Z,15.05
2023-02-12T17:36:14.259Z,14.95
2023-02-12T17:38:40.968Z,15.38
2023-02-12T17:41:11.196Z,15.13
2023-02-12T17:43:37.950Z,16.08
2023-02-12T17:46:18.303Z,15.48
2023-02-12T17:48:45.122Z,14.65
2023-02-12T17:51:12.004Z,16.02
2023-02-12T17:53:39.742Z,17.05
2023-02-12T17:56:11.052Z,14.52
2023-02-12T17:58:39.357Z,14.90
2023-02-12T18:01:11.713Z,17.40
2023-02-12T18:03:38.696Z,16.40
2023-02-12T18:06:06.883Z,16.70
2023-02-12T18:08:33.994Z,17.05
2023-02-12T18:11:06.060Z,15.98
2023-02-12T18:13:32.986Z,16.67
2023-02-12T18:15:59.598Z,17.48
2023-02-12T18:18:26.230Z,20.15
2023-02-12T18:20:52.831Z,19.80
2023-02-12T18:23:19.432Z,20.65
2023-02-12T18:25:46.038Z,17.70
2023-02-12T18:28:12.829Z,18.27
2023-02-12T18:30:42.708Z,17.80
2023-02-12T18:33:12.014Z,17.92
2023-02-12T18:35:41.641Z,17.20
2023-02-12T18:38:08.491Z,17.50
2023-02-12T18:40:35.155Z,18.27
2023-02-12T18:43:01.795Z,18.50
2023-02-12T18:45:28.405Z,21.55
2023-02-12T18:47:55.069Z,17.70
2023-02-12T18:50:21.733Z,17.35
2023-02-12T18:52:48.314Z,21.30
2023-02-12T18:55:14.883Z,25.50
2023-02-12T18:57:41.528Z,24.15
2023-02-12T19:00:08.812Z,24.50
2023-02-12T19:02:35.452Z,23.83
2023-02-12T19:05:02.164Z,21.20
2023-02-12T19:07:28.808Z,16.30
2023-02-12T19:09:55.574Z,15.45
2023-02-12T19:12:22.228Z,15.27
2023-02-12T19:14:48.936Z,15.32
2023-02-12T19:17:15.596Z,14.73
2023-02-12T19:19:42.288Z,13.35
2023-02-12T19:22:09.114Z,15.65
2023-02-12T19:24:46.272Z,14.50
2023-02-12T19:27:13.998Z,14.07
2023-02-12T19:29:40.654Z,16.15
2023-02-12T19:32:07.392Z,15.13
2023-02-12T19:34:34.080Z,15.98
2023-02-12T19:37:00.713Z,15.68
2023-02-12T19:39:27.661Z,15.48
2023-02-12T19:41:56.227Z,15.02
2023-02-12T19:44:24.672Z,15.13
2023-02-12T19:46:52.445Z,14.20
2023-02-12T19:49:21.988Z,13.50
2023-02-12T19:51:49.706Z,13.68
2023-02-12T19:54:17.879Z,14.18
2023-02-12T19:56:45.359Z,13.52
2023-02-12T19:59:17.511Z,13.40
2023-02-12T20:01:44.983Z,13.63
2023-02-12T20:04:13.091Z,12.55
2023-02-12T20:06:41.234Z,13.45
2023-02-12T20:09:09.966Z,15.38
2023-02-12T20:11:38.380Z,13.65
2023-02-12T20:14:08.878Z,13.98
2023-02-12T20:16:38.961Z,13.75
2023-02-12T20:19:09.351Z,13.57
2023-02-12T20:21:36.271Z,13.45
2023-02-12T20:24:03.610Z,15.52
2023-02-12T20:26:32.273Z,14.75
2023-02-12T20:29:00.701Z,14.00
2023-02-12T20:31:30.906Z,13.52
2023-02-12T20:34:00.908Z,13.75
2023-02-12T20:36:31.711Z,14.07
2023-02-12T20:38:59.168Z,14.00
2023-02-12T20:41:27.261Z,13.32
2023-02-12T20:43:54.902Z,13.57
2023-02-12T20:46:24.029Z,14.13
2023-02-12T20:48:51.535Z,14.20
2023-02-12T20:51:23.125Z,14.55
2023-02-12T20:53:50.839Z,15.27
2023-02-12T20:56:21.300Z,14.18
2023-02-12T20:58:48.398Z,14.80
2023-02-12T21:01:17.865Z,14.23
2023-02-12T21:03:45.258Z,14.95
2023-02-12T21:06:12.073Z,15.77
2023-02-12T21:08:40.167Z,15.30
2023-02-12T21:11:19.403Z,16.13
2023-02-12T21:14:02.261Z,15.05
2023-02-12T21:16:35.018Z,15.80
2023-02-12T21:19:01.826Z,15.48
2023-02-12T21:21:34.148Z,17.10
2023-02-12T21:24:02.422Z,16.75
2023-02-12T21:26:31.453Z,16.42
2023-02-12T21:28:59.983Z,17.38
2023-02-12T21:31:33.047Z,16.75
2023-02-12T21:34:04.390Z,17.27
2023-02-12T21:36:34.872Z,17.70
2023-02-12T21:39:03.052Z,17.95
2023-02-12T21:41:32.405Z,18.35
2023-02-12T21:44:01.593Z,18.13
2023-02-12T21:46:29.177Z,18.50
2023-02-12T21:48:57.511Z,18.83
2023-02-12T21:51:27.613Z,18.77
2023-02-12T21:53:57.282Z,18.55
2023-02-12T21:56:24.932Z,20.50
2023-02-12T21:58:52.438Z,18.98
2023-02-12T22:01:22.842Z,17.88
2023-02-12T22:03:50.183Z,19.08
2023-02-12T22:06:19.129Z,18.75
2023-02-12T22:08:46.410Z,19.30
2023-02-12T22:11:14.042Z,18.52
2023-02-12T22:13:40.836Z,18.23
2023-02-12T22:16:22.223Z,18.50
2023-02-12T22:18:51.364Z,19.45
2023-02-12T22:21:18.479Z,19.00
2023-02-12T22:23:45.395Z,20.48
2023-02-12T22:26:15.110Z,19.35
2023-02-12T22:28:50.606Z,19.17
2023-02-12T22:31:21.917Z,19.45
2023-02-12T22:33:54.521Z,19.42
2023-02-12T22:36:21.966Z,19.48
2023-02-12T22:38:49.142Z,18.92
2023-02-12T22:41:16.067Z,19.10
2023-02-12T22:43:42.824Z,20.08
2023-02-12T22:46:12.228Z,20.45
2023-02-12T22:48:39.795Z,20.30
2023-02-12T22:51:15.577Z,20.00
2023-02-12T22:53:42.283Z,19.27
2023-02-12T22:56:09.398Z,18.50
2023-02-12T22:58:38.096Z,19.02
2023-02-12T23:01:10.497Z,20.02
2023-02-12T23:03:40.209Z,18.85
2023-02-12T23:06:10.351Z,20.52
2023-02-12T23:08:37.070Z,18.95
2023-02-12T23:11:05.032Z,18.52
2023-02-12T23:13:33.094Z,18.38
2023-02-12T23:15:59.830Z,18.85
2023-02-12T23:18:26.601Z,18.33
2023-02-12T23:20:53.669Z,20.08
2023-02-12T23:23:21.900Z,19.88
2023-02-12T23:25:48.870Z,18.70
2023-02-12T23:28:16.275Z,20.08
2023-02-12T23:30:43.384Z,19.27
2023-02-12T23:33:10.221Z,19.42
2023-02-12T23:35:36.858Z,19.38
2023-02-12T23:38:04.330Z,20.63
2023-02-12T23:40:32.221Z,19.58
2023-02-12T23:42:58.900Z,20.55
2023-02-12T23:45:26.189Z,19.42
2023-02-12T23:47:52.849Z,20.30
2023-02-12T23:50:19.680Z,20.70
2023-02-12T23:52:46.380Z,20.45
2023-02-12T23:55:13.056Z,20.27
2023-02-12T23:57:39.804Z,20.98
